Time;durP1;ratioP1;P1;durP2;ratioP2;P2;SDS_P1;SDS_P2;PMS_P1;PMS_P2;Temp;Humidity;BMP_temperature;BMP_pressure;BME280_temperature;BME280_humidity;BME280_pressure;Samples;Min_cycle;Max_cycle;Signal;HPM_P1;HPM_P2
2024/03/03 00:03:16;;;;;;;62.30;38.00;;;;;;;10.54;69.61;98415.48;232232;198;138573;-54
2024/03/03 00:08:21;;;;;;;64.30;39.30;;;;;;;10.53;69.51;98412.74;232197;197;153879;-53
2024/03/03 00:13:27;;;;;;;61.60;38.20;;;;;;;10.53;69.45;98419.95;232094;201;138541;-51
2024/03/03 00:18:30;;;;;;;;;;;;;;;10.53;69.34;98424.60;232207;204;140125;-53
2024/03/03 00:23:33;;;;;;;63.20;38.50;;;;;;;10.45;69.25;98427.10;232236;198;154031;-51
2024/03/03 00:28:36;;;;;;;62.60;38.00;;;;;;;10.34;69.39;98427.16;232227;202;139171;-52
2024/03/03 00:33:41;;;;;;;64.90;37.90;;;;;;;10.27;69.57;98424.70;232230;198;138098;-53
2024/03/03 00:38:44;;;;;;;61.40;37.80;;;;;;;10.19;69.57;98428.59;231917;198;153064;-51
2024/03/03 00:43:47;;;;;;;63.30;38.20;;;;;;;10.11;69.70;98429.65;231894;198;138508;-52
2024/03/03 00:48:51;;;;;;;65.60;37.90;;;;;;;10.04;69.77;98422.74;232193;198;138574;-51
2024/03/03 00:53:54;;;;;;;61.50;35.30;;;;;;;9.97;69.81;98413.99;232203;197;153784;-51
2024/03/03 00:58:57;;;;;;;64.30;37.50;;;;;;;9.90;69.90;98413.94;232008;198;138643;-53
2024/03/03 01:04:00;;;;;;;63.60;36.70;;;;;;;9.82;69.93;98417.31;232163;205;137604;-51
2024/03/03 01:09:04;;;;;;;63.80;37.80;;;;;;;9.78;70.14;98416.02;232207;205;155123;-53
2024/03/03 01:14:09;;;;;;;59.30;37.70;;;;;;;9.82;70.18;98414.47;232115;198;138857;-52
2024/03/03 01:19:12;;;;;;;61.20;36.00;;;;;;;9.87;70.16;98410.06;232014;201;137639;-54
2024/03/03 01:24:15;;;;;;;58.70;35.70;;;;;;;9.87;70.00;98404.23;232163;198;154494;-52
2024/03/03 01:29:18;;;;;;;60.80;35.90;;;;;;;9.83;69.96;98395.08;232199;205;138122;-54
2024/03/03 01:34:25;;;;;;;61.20;36.10;;;;;;;9.79;69.92;98393.99;231971;201;137296;-53
2024/03/03 01:39:28;;;;;;;57.30;34.40;;;;;;;9.65;70.02;98396.89;232210;198;153177;-53
2024/03/03 01:44:32;;;;;;;59.60;35.30;;;;;;;9.57;70.29;98394.45;232079;201;138362;-52
2024/03/03 01:49:36;;;;;;;60.40;36.50;;;;;;;9.51;70.52;98395.90;232113;198;138800;-50
2024/03/03 01:54:40;;;;;;;59.50;35.90;;;;;;;9.49;70.68;98391.45;232172;201;153826;-51
2024/03/03 01:59:43;;;;;;;60.30;35.70;;;;;;;9.43;70.73;98391.88;232006;198;137335;-53
2024/03/03 02:04:47;;;;;;;52.60;32.10;;;;;;;9.37;70.79;98397.38;232077;201;138696;-52
2024/03/03 02:09:51;;;;;;;61.30;34.60;;;;;;;9.35;70.76;98390.77;232163;206;153402;-53
2024/03/03 02:14:55;;;;;;;60.60;35.90;;;;;;;9.36;70.63;98391.42;232245;202;138940;-54
2024/03/03 02:19:58;;;;;;;59.30;36.60;;;;;;;9.34;70.52;98388.20;232023;198;138162;-55
2024/03/03 02:25:03;;;;;;;58.10;36.50;;;;;;;9.29;70.50;98381.25;231989;197;155681;-53
2024/03/03 02:30:08;;;;;;;61.60;37.60;;;;;;;9.25;70.45;98375.36;232316;198;137658;-52
2024/03/03 02:35:11;;;;;;;62.10;37.00;;;;;;;9.19;70.47;98376.96;232158;203;138082;-52
2024/03/03 02:40:14;;;;;;;61.60;38.20;;;;;;;9.14;70.74;98368.81;232172;205;155541;-53
2024/03/03 02:45:18;;;;;;;63.70;39.60;;;;;;;9.13;70.71;98370.83;232382;205;137335;-51
2024/03/03 02:50:21;;;;;;;61.10;37.80;;;;;;;9.09;70.63;98372.18;232329;202;141099;-53
2024/03/03 02:55:24;;;;;;;66.80;38.50;;;;;;;9.04;70.76;98375.32;232234;197;152852;-52
2024/03/03 03:00:28;;;;;;;60.30;37.10;;;;;;;8.96;70.96;98374.59;232372;202;138708;-53
2024/03/03 03:05:31;;;;;;;65.20;37.80;;;;;;;8.86;71.11;98372.44;232057;205;138651;-52
2024/03/03 03:10:34;;;;;;;60.50;35.90;;;;;;;8.84;71.31;98377.58;232139;198;153376;-52
2024/03/03 03:15:37;;;;;;;61.80;37.60;;;;;;;8.90;71.22;98384.41;232353;197;139319;-53
2024/03/03 03:20:40;;;;;;;66.10;38.40;;;;;;;8.93;71.01;98387.73;232310;198;138583;-52
2024/03/03 03:25:44;;;;;;;64.50;37.60;;;;;;;8.94;71.09;98385.39;232099;201;153875;-52
2024/03/03 03:30:47;;;;;;;61.00;36.70;;;;;;;8.89;71.29;98387.51;232296;197;138324;-51
2024/03/03 03:35:51;;;;;;;61.30;36.30;;;;;;;8.83;71.53;98389.65;232162;198;138782;-48
2024/03/03 03:40:54;;;;;;;60.40;36.60;;;;;;;8.79;71.54;98397.85;232267;198;153276;-52
2024/03/03 03:45:58;;;;;;;56.90;36.40;;;;;;;8.77;71.55;98399.07;232275;201;137312;-54
2024/03/03 03:51:01;;;;;;;59.20;37.40;;;;;;;8.72;71.57;98397.23;232211;204;141888;-54
2024/03/03 03:56:04;;;;;;;60.60;36.60;;;;;;;8.68;71.44;98393.11;232275;204;153293;-51
2024/03/03 04:01:08;;;;;;;56.20;34.90;;;;;;;8.62;71.79;98389.38;232179;198;138526;-53
2024/03/03 04:06:11;;;;;;;56.00;34.50;;;;;;;8.64;71.72;98395.10;232178;201;138264;-54
2024/03/03 04:11:15;;;;;;;60.00;35.80;;;;;;;8.69;71.33;98388.27;232267;198;153230;-54
2024/03/03 04:16:18;;;;;;;56.20;34.90;;;;;;;8.70;71.03;98384.13;232409;204;138728;-53
2024/03/03 04:21:21;;;;;;;63.20;35.90;;;;;;;8.69;70.77;98388.23;232347;201;137720;-53
2024/03/03 04:26:24;;;;;;;62.60;37.00;;;;;;;8.68;70.53;98383.73;232327;198;153114;-51
2024/03/03 04:31:27;;;;;;;59.80;37.00;;;;;;;8.61;70.24;98381.84;232162;205;138106;-53
2024/03/03 04:36:31;;;;;;;53.40;35.60;;;;;;;8.54;70.35;98380.04;232084;205;139214;-54
2024/03/03 04:41:34;;;;;;;60.80;36.80;;;;;;;8.49;70.24;98387.20;232272;202;153159;-50
2024/03/03 04:46:37;;;;;;;57.20;34.50;;;;;;;8.44;70.21;98384.92;232306;198;141744;-54
2024/03/03 04:51:40;;;;;;;55.00;34.80;;;;;;;8.38;70.41;98385.31;232134;198;137720;-50
2024/03/03 04:56:43;;;;;;;57.30;32.90;;;;;;;8.32;70.54;98388.81;232298;204;154484;-52
2024/03/03 05:01:47;;;;;;;51.30;33.30;;;;;;;8.33;70.48;98398.84;232163;198;138689;-51
2024/03/03 05:06:50;;;;;;;51.50;32.70;;;;;;;8.35;70.78;98396.94;232314;197;138260;-52
2024/03/03 05:11:53;;;;;;;51.10;32.50;;;;;;;8.41;70.81;98394.80;232398;205;153443;-53
2024/03/03 05:16:57;;;;;;;54.00;34.60;;;;;;;8.42;70.59;98397.97;232122;198;138321;-52
2024/03/03 05:22:00;;;;;;;470.20;361.30;;;;;;;8.49;71.46;98396.06;232355;202;137622;-54
2024/03/03 05:27:03;;;;;;;62.50;39.20;;;;;;;8.63;70.91;98390.58;232291;204;153251;-51
2024/03/03 05:32:07;;;;;;;406.80;307.70;;;;;;;8.51;70.33;98393.98;232157;198;141767;-49
2024/03/03 05:37:11;;;;;;;65.20;40.80;;;;;;;8.41;70.45;98389.89;232188;205;138105;-53
2024/03/03 05:42:14;;;;;;;56.20;34.60;;;;;;;8.36;71.03;98394.73;232253;205;153502;-52
2024/03/03 05:47:17;;;;;;;63.10;35.80;;;;;;;8.36;70.75;98401.13;232046;201;138739;-53
2024/03/03 05:52:20;;;;;;;54.30;33.00;;;;;;;8.29;70.83;98405.09;232260;198;138360;-52
2024/03/03 05:57:24;;;;;;;49.40;31.50;;;;;;;8.32;71.03;98402.59;232252;205;153146;-51
2024/03/03 06:02:27;;;;;;;49.00;31.50;;;;;;;8.38;71.17;98406.29;232304;205;139708;-53
2024/03/03 06:07:30;;;;;;;47.00;30.40;;;;;;;8.47;71.22;98404.17;232316;204;138079;-53
2024/03/03 06:12:34;;;;;;;48.80;32.30;;;;;;;8.52;71.31;98405.61;232022;198;153216;-54
2024/03/03 06:17:38;;;;;;;49.00;31.10;;;;;;;8.59;71.31;98406.58;232185;198;138254;-54
2024/03/03 06:22:41;;;;;;;49.20;31.40;;;;;;;8.68;71.28;98408.79;232309;198;138634;-54
2024/03/03 06:27:45;;;;;;;49.20;30.90;;;;;;;8.74;71.20;98401.16;232233;198;153712;-52
2024/03/03 06:32:48;;;;;;;82.50;54.20;;;;;;;8.79;71.46;98397.86;232178;202;137510;-54
2024/03/03 06:37:51;;;;;;;47.30;30.90;;;;;;;8.92;71.40;98404.29;232314;201;141071;-54
2024/03/03 06:42:55;;;;;;;45.10;29.60;;;;;;;8.95;71.11;98401.20;232097;198;153827;-52
2024/03/03 06:47:58;;;;;;;46.40;29.00;;;;;;;8.99;71.02;98395.27;232190;201;139033;-55
2024/03/03 06:53:01;;;;;;;44.60;28.60;;;;;;;9.07;71.06;98397.45;232050;205;138577;-55
2024/03/03 06:58:05;;;;;;;261.90;182.30;;;;;;;9.15;71.49;98389.11;230829;198;153643;-51
2024/03/03 07:08:11;;;;;;;44.90;28.70;;;;;;;9.39;71.16;98388.55;232131;197;137653;-53
2024/03/03 07:13:14;;;;;;;41.60;28.10;;;;;;;9.40;71.03;98395.56;232177;202;153734;-55
2024/03/03 07:18:17;;;;;;;39.50;26.70;;;;;;;9.42;71.10;98393.64;232296;201;138518;-51
2024/03/03 07:23:21;;;;;;;40.10;27.00;;;;;;;9.49;71.23;98388.92;232347;202;137452;-54
2024/03/03 07:28:24;;;;;;;39.60;26.60;;;;;;;9.56;71.13;98389.55;232326;204;153570;-51
2024/03/03 07:33:27;;;;;;;35.00;22.40;;;;;;;9.59;71.20;98387.23;232038;199;138574;-54
2024/03/03 07:38:30;;;;;;;141.30;99.20;;;;;;;9.69;71.51;98388.06;232250;198;139075;-55
2024/03/03 07:43:34;;;;;;;40.20;25.70;;;;;;;9.95;71.61;98390.71;232154;198;153133;-54
2024/03/03 07:48:37;;;;;;;36.40;24.90;;;;;;;10.19;71.14;98389.56;231975;201;137325;-54
2024/03/03 07:53:40;;;;;;;36.40;24.30;;;;;;;10.41;70.89;98394.92;232063;199;137384;-53
2024/03/03 07:58:43;;;;;;;36.60;24.70;;;;;;;10.62;70.69;98393.27;232211;197;155014;-56
2024/03/03 08:03:47;;;;;;;37.50;24.80;;;;;;;10.83;70.33;98394.39;232171;204;137860;-54
2024/03/03 08:08:50;;;;;;;36.60;24.00;;;;;;;11.06;70.06;98394.09;232243;201;138344;-54
2024/03/03 08:13:54;;;;;;;35.80;25.60;;;;;;;11.28;69.79;98390.15;232334;205;153173;-55
2024/03/03 08:18:57;;;;;;;38.70;26.50;;;;;;;11.44;69.31;98388.22;232178;197;138110;-55
2024/03/03 08:24:01;;;;;;;35.40;26.40;;;;;;;11.64;68.83;98392.05;232239;198;138652;-52
2024/03/03 08:29:05;;;;;;;38.90;26.80;;;;;;;11.84;68.12;98389.58;232121;197;153417;-53
2024/03/03 08:34:09;;;;;;;35.50;25.80;;;;;;;12.01;67.80;98392.56;232050;205;138687;-52
2024/03/03 08:39:13;;;;;;;38.80;27.30;;;;;;;12.17;67.35;98386.52;232011;201;137978;-55
2024/03/03 08:44:16;;;;;;;33.50;24.00;;;;;;;12.35;66.89;98379.92;232201;202;154111;-53
2024/03/03 08:49:22;;;;;;;36.50;22.20;;;;;;;12.55;66.20;98376.89;232167;197;138434;-54
2024/03/03 08:54:25;;;;;;;35.30;23.30;;;;;;;12.74;65.34;98372.31;232142;205;137631;-52
2024/03/03 08:59:29;;;;;;;26.00;18.10;;;;;;;12.91;64.97;98367.52;232233;205;153371;-61
2024/03/03 09:04:37;;;;;;;27.80;16.60;;;;;;;13.05;64.33;98370.24;232012;201;137551;-54
2024/03/03 09:09:42;;;;;;;23.20;15.00;;;;;;;13.19;63.94;98363.95;232199;198;138345;-55
2024/03/03 09:14:49;;;;;;;23.40;15.20;;;;;;;13.37;63.72;98363.90;232137;205;153394;-56
2024/03/03 09:19:53;;;;;;;20.50;13.40;;;;;;;13.57;63.15;98355.05;232220;198;138430;-54
2024/03/03 09:24:56;;;;;;;31.90;20.90;;;;;;;13.78;63.40;98355.95;232204;202;137904;-55
2024/03/03 09:30:00;;;;;;;26.50;16.10;;;;;;;13.95;62.35;98351.08;232085;201;153317;-51
2024/03/03 09:35:06;;;;;;;20.00;13.30;;;;;;;14.10;61.56;98346.39;232113;197;137621;-55
2024/03/03 09:40:14;;;;;;;19.80;13.60;;;;;;;14.25;61.13;98343.99;232299;198;137928;-52
2024/03/03 09:45:20;;;;;;;19.60;12.70;;;;;;;14.38;60.41;98344.44;232153;201;154007;-52
2024/03/03 09:50:25;;;;;;;21.20;12.20;;;;;;;14.55;59.12;98341.72;232195;205;138906;-55
2024/03/03 09:55:30;;;;;;;23.20;15.90;;;;;;;14.74;59.26;98341.11;232172;198;138754;-52
2024/03/03 10:00:34;;;;;;;17.80;11.60;;;;;;;14.90;58.68;98332.88;232184;201;153006;-53
2024/03/03 10:05:41;;;;;;;16.70;11.50;;;;;;;15.05;58.15;98331.16;232182;205;137948;-53
2024/03/03 10:10:47;;;;;;;16.00;11.00;;;;;;;15.16;57.42;98325.13;231915;205;138645;-52
2024/03/03 10:15:53;;;;;;;18.00;12.60;;;;;;;15.36;57.44;98318.11;231940;198;153789;-53
2024/03/03 10:20:57;;;;;;;15.80;11.30;;;;;;;15.58;57.05;98319.08;231981;201;138032;-54
2024/03/03 10:26:00;;;;;;;173.90;143.50;;;;;;;15.83;56.79;98318.69;232226;202;141297;-56
2024/03/03 10:31:15;;;;;;;22.20;17.30;;;;;;;16.11;57.03;98310.98;232068;198;153818;-54
2024/03/03 10:36:20;;;;;;;12.70;9.60;;;;;;;16.44;55.22;98306.34;232214;204;139354;-55
2024/03/03 10:41:24;;;;;;;;;;;;;;;16.68;54.59;98302.89;232277;205;138468;-55
2024/03/03 10:46:27;;;;;;;16.10;11.30;;;;;;;16.88;54.46;98294.09;232225;197;153748;-55
2024/03/03 10:51:31;;;;;;;19.00;12.20;;;;;;;17.19;56.80;98281.82;232280;202;137816;-54
2024/03/03 10:56:36;;;;;;;14.90;11.10;;;;;;;17.44;54.13;98277.98;232045;204;139168;-55
2024/03/03 11:01:40;;;;;;;51.90;38.70;;;;;;;17.66;54.81;98267.94;232171;201;153204;-54
2024/03/03 11:06:45;;;;;;;17.40;11.40;;;;;;;17.97;53.69;98264.70;230865;202;139098;-56
2024/03/03 11:12:00;;;;;;;16.00;10.50;;;;;;;18.06;52.23;98254.60;232091;203;138428;-59
2024/03/03 11:17:08;;;;;;;13.80;10.10;;;;;;;18.17;52.01;98251.11;232103;198;154230;-60
2024/03/03 11:22:17;;;;;;;13.10;9.30;;;;;;;18.26;51.25;98247.31;232272;197;137597;-61
2024/03/03 11:27:26;;;;;;;14.70;10.10;;;;;;;18.32;50.72;98240.19;232220;201;138569;-61
2024/03/03 11:32:33;;;;;;;41.50;30.60;;;;;;;18.42;51.13;98237.11;231987;202;153263;-62
2024/03/03 11:37:37;;;;;;;478.90;366.30;;;;;;;18.48;50.47;98227.87;232160;197;137905;-59
2024/03/03 11:42:41;;;;;;;20.60;15.00;;;;;;;18.57;50.38;98219.83;232085;197;138422;-59
2024/03/03 11:47:47;;;;;;;12.00;8.10;;;;;;;18.76;49.00;98216.92;231880;202;153419;-60
2024/03/03 11:52:52;;;;;;;41.50;36.10;;;;;;;18.90;48.01;98209.33;232227;205;137943;-58
2024/03/03 11:57:58;;;;;;;9.80;8.20;;;;;;;19.17;47.90;98209.58;231264;202;138926;-56
2024/03/03 12:03:02;;;;;;;11.60;7.70;;;;;;;19.43;47.17;98203.64;232119;201;155638;-55
2024/03/03 12:08:09;;;;;;;80.00;48.80;;;;;;;19.68;46.96;98204.97;232098;205;138447;-59
2024/03/03 12:13:13;;;;;;;19.10;13.60;;;;;;;19.92;47.20;98197.95;232233;201;137945;-54
2024/03/03 12:18:16;;;;;;;15.20;9.00;;;;;;;19.96;46.55;98191.14;232160;198;153426;-55
2024/03/03 12:23:19;;;;;;;13.80;8.70;;;;;;;20.00;46.52;98186.50;232282;205;138856;-54
2024/03/03 12:28:26;;;;;;;11.40;8.20;;;;;;;19.93;45.81;98182.42;232203;198;137356;-54
2024/03/03 12:33:29;;;;;;;12.20;8.70;;;;;;;19.90;46.03;98177.30;232247;197;153577;-55
2024/03/03 12:38:33;;;;;;;11.20;9.10;;;;;;;19.74;45.75;98171.39;232199;202;138042;-55
2024/03/03 12:43:36;;;;;;;10.80;8.90;;;;;;;19.56;46.00;98175.69;232164;202;138696;-55
2024/03/03 12:48:43;;;;;;;14.80;9.60;;;;;;;19.34;46.56;98169.69;231905;197;153586;-53
2024/03/03 12:53:47;;;;;;;13.10;9.20;;;;;;;19.23;47.04;98166.77;232213;198;138612;-55
2024/03/03 12:58:51;;;;;;;13.50;8.70;;;;;;;19.00;46.90;98162.35;232193;202;138394;-56
2024/03/03 13:03:55;;;;;;;;;;;;;;;18.81;47.02;98155.61;232142;197;153298;-55
2024/03/03 13:08:58;;;;;;;9.70;6.90;;;;;;;18.82;47.14;98148.35;232313;205;137163;-55
2024/03/03 13:14:03;;;;;;;10.40;8.10;;;;;;;18.95;46.64;98143.13;232236;202;142445;-56
2024/03/03 13:19:08;;;;;;;10.30;7.50;;;;;;;19.08;46.36;98140.23;232216;198;153254;-55
2024/03/03 13:24:13;;;;;;;13.80;8.30;;;;;;;19.06;47.04;98137.58;231865;205;138042;-56
2024/03/03 13:29:16;;;;;;;11.30;7.00;;;;;;;19.27;46.70;98133.66;231884;201;138959;-55
2024/03/03 13:34:20;;;;;;;10.60;6.60;;;;;;;19.45;45.61;98125.94;231403;205;153637;-54
2024/03/03 13:39:23;;;;;;;9.40;6.40;;;;;;;19.57;44.85;98119.89;232099;197;137677;-52
2024/03/03 13:44:26;;;;;;;9.80;6.50;;;;;;;19.62;44.56;98111.66;232205;201;137249;-54
2024/03/03 13:49:29;;;;;;;8.20;5.90;;;;;;;19.41;44.50;98101.60;231937;197;153422;-53
2024/03/03 13:54:36;;;;;;;8.80;6.00;;;;;;;19.16;44.63;98103.33;232104;205;137973;-58
2024/03/03 13:59:39;;;;;;;152.80;118.10;;;;;;;18.98;47.10;98099.88;231646;201;138647;-58
2024/03/03 14:04:43;;;;;;;18.80;10.30;;;;;;;19.08;51.89;98094.59;231356;201;153997;-62
2024/03/03 14:09:46;;;;;;;16.90;7.30;;;;;;;19.12;49.55;98091.61;231885;204;137448;-64
2024/03/03 14:14:49;;;;;;;9.80;6.20;;;;;;;18.99;48.07;98089.66;232103;201;139613;-64
2024/03/03 14:19:53;;;;;;;9.80;5.90;;;;;;;18.79;46.76;98099.83;232257;198;153386;-55
2024/03/03 14:24:56;;;;;;;8.20;5.30;;;;;;;18.71;47.16;98102.29;232010;205;137527;-57
2024/03/03 14:29:59;;;;;;;8.60;5.20;;;;;;;18.44;45.39;98104.13;232122;197;138345;-56
2024/03/03 14:35:03;;;;;;;14.90;9.70;;;;;;;18.23;45.12;98102.52;232035;197;153380;-56
2024/03/03 14:40:13;;;;;;;5.90;4.60;;;;;;;18.00;44.93;98101.18;231942;202;139009;-56
2024/03/03 14:45:17;;;;;;;12.50;6.60;;;;;;;17.80;45.54;98098.84;232131;201;142316;-56
2024/03/03 14:50:20;;;;;;;11.50;6.60;;;;;;;17.68;46.26;98096.86;232115;198;154125;-56
2024/03/03 14:55:24;;;;;;;7.80;5.20;;;;;;;17.56;46.39;98091.54;232102;201;137873;-55
2024/03/03 15:00:27;;;;;;;10.10;7.40;;;;;;;17.40;46.45;98088.04;231006;205;137970;-56
2024/03/03 15:05:31;;;;;;;12.80;8.40;;;;;;;17.28;46.56;98085.36;231923;198;153846;-56
2024/03/03 15:10:34;;;;;;;80.40;69.00;;;;;;;17.18;47.10;98085.33;231961;201;139359;-56
2024/03/03 15:15:40;;;;;;;10.30;7.40;;;;;;;17.09;47.47;98080.60;232127;201;138416;-56
2024/03/03 15:20:43;;;;;;;9.60;6.10;;;;;;;16.94;47.11;98084.81;232008;201;153096;-55
2024/03/03 15:25:46;;;;;;;7.80;5.70;;;;;;;16.77;47.52;98082.56;231879;198;137964;-57
2024/03/03 15:30:49;;;;;;;10.70;6.40;;;;;;;16.64;47.70;98082.64;231956;202;138224;-57
2024/03/03 15:35:52;;;;;;;9.10;6.40;;;;;;;16.47;48.31;98080.43;232162;198;153222;-57
2024/03/03 15:40:56;;;;;;;10.20;6.80;;;;;;;16.36;48.84;98083.71;232076;201;138115;-57
2024/03/03 15:45:59;;;;;;;9.10;6.80;;;;;;;16.23;49.28;98082.34;232024;197;138210;-57
2024/03/03 15:51:03;;;;;;;11.20;7.30;;;;;;;16.11;49.75;98086.73;231919;201;153362;-57
2024/03/03 15:56:06;;;;;;;289.00;241.20;;;;;;;16.05;50.36;98083.16;232213;198;138561;-55
2024/03/03 16:01:09;;;;;;;11.90;8.70;;;;;;;16.05;50.58;98085.17;232224;205;138565;-53
2024/03/03 16:06:13;;;;;;;9.90;7.60;;;;;;;15.94;50.34;98085.58;232075;205;153951;-53
2024/03/03 16:11:16;;;;;;;12.90;7.70;;;;;;;15.85;50.40;98085.05;231568;204;140925;-53
2024/03/03 16:16:25;;;;;;;11.20;8.10;;;;;;;15.79;50.71;98087.23;232215;198;138414;-54
2024/03/03 16:21:30;;;;;;;13.10;7.30;;;;;;;15.70;51.08;98085.86;232161;204;153786;-54
2024/03/03 16:26:34;;;;;;;11.50;7.50;;;;;;;15.63;51.60;98081.30;232252;204;138633;-54
2024/03/03 16:31:37;;;;;;;10.00;7.00;;;;;;;15.58;51.95;98087.50;232275;198;138128;-53
2024/03/03 16:36:42;;;;;;;11.00;7.60;;;;;;;15.54;52.11;98089.86;232096;205;154899;-55
2024/03/03 16:41:45;;;;;;;16.10;8.70;;;;;;;15.50;52.42;98090.05;232123;198;138285;-54
2024/03/03 16:46:48;;;;;;;11.60;7.90;;;;;;;15.45;52.69;98090.80;232084;197;138728;-52
2024/03/03 16:51:52;;;;;;;11.90;8.30;;;;;;;15.39;52.93;98094.54;232179;198;153078;-49
2024/03/03 16:56:58;;;;;;;11.00;7.90;;;;;;;15.33;53.10;98091.75;231930;198;138047;-49
2024/03/03 17:02:01;;;;;;;15.80;9.00;;;;;;;15.29;53.25;98097.67;232157;205;138752;-53
2024/03/03 17:07:04;;;;;;;15.00;9.10;;;;;;;15.23;53.36;98100.02;231850;198;153277;-53
2024/03/03 17:12:07;;;;;;;40.70;34.30;;;;;;;15.22;54.17;98106.20;231971;205;138338;-52
2024/03/03 17:17:11;;;;;;;13.40;9.80;;;;;;;15.23;54.22;98114.88;232021;198;137629;-56
2024/03/03 17:22:14;;;;;;;16.20;10.10;;;;;;;15.13;54.41;98114.41;231910;205;154817;-59
2024/03/03 17:27:18;;;;;;;17.00;12.60;;;;;;;15.03;54.95;98117.30;232088;197;138542;-58
2024/03/03 17:32:22;;;;;;;17.10;13.20;;;;;;;14.92;55.70;98118.48;231884;198;139966;-57
2024/03/03 17:37:25;;;;;;;24.20;14.80;;;;;;;14.85;56.37;98123.83;232140;205;155087;-57
2024/03/03 17:42:28;;;;;;;20.30;14.30;;;;;;;14.80;56.78;98125.36;231841;198;138163;-56
2024/03/03 17:47:31;;;;;;;21.10;15.10;;;;;;;14.71;57.15;98133.19;232107;197;138875;-55
2024/03/03 17:52:35;;;;;;;21.30;14.80;;;;;;;14.64;57.45;98131.34;232172;197;153653;-57
2024/03/03 17:57:38;;;;;;;23.90;16.60;;;;;;;14.57;57.79;98134.52;232094;205;138721;-56
2024/03/03 18:02:41;;;;;;;25.30;16.20;;;;;;;14.49;57.95;98133.95;231971;201;138373;-57
2024/03/03 18:07:44;;;;;;;25.80;16.70;;;;;;;14.41;58.12;98133.95;232132;197;155296;-56
2024/03/03 18:12:48;;;;;;;25.00;16.60;;;;;;;14.33;57.90;98135.77;232114;198;137596;-56
2024/03/03 18:17:51;;;;;;;138.60;118.90;;;;;;;14.23;58.00;98140.48;232092;205;138133;-58
2024/03/03 18:22:55;;;;;;;43.60;30.20;;;;;;;14.26;59.42;98143.39;232091;201;153635;-58
2024/03/03 18:27:58;;;;;;;28.50;18.20;;;;;;;14.28;58.63;98143.92;232048;198;138940;-57
2024/03/03 18:33:03;;;;;;;26.50;17.60;;;;;;;14.14;58.82;98145.33;231943;198;138329;-56
2024/03/03 18:38:06;;;;;;;26.70;17.20;;;;;;;14.03;59.08;98155.50;232106;204;153088;-58
2024/03/03 18:43:09;;;;;;;25.10;18.00;;;;;;;13.93;59.23;98158.64;232193;201;142125;-58
2024/03/03 18:48:12;;;;;;;27.60;18.20;;;;;;;13.87;59.38;98162.46;231957;197;138264;-58
2024/03/03 18:53:18;;;;;;;30.00;18.50;;;;;;;13.78;59.57;98165.94;232142;201;153815;-57
2024/03/03 18:58:21;;;;;;;27.60;17.50;;;;;;;13.71;59.77;98170.08;232102;201;138278;-57
2024/03/03 19:03:24;;;;;;;25.10;17.20;;;;;;;13.66;60.03;98165.19;232292;205;139027;-57
2024/03/03 19:08:28;;;;;;;26.60;18.60;;;;;;;13.59;60.13;98164.72;231990;205;153256;-58
2024/03/03 19:13:31;;;;;;;27.10;18.30;;;;;;;13.55;60.28;98160.52;231862;197;137830;-58
2024/03/03 19:18:34;;;;;;;31.70;18.40;;;;;;;13.49;60.52;98163.81;232074;201;138305;-57
2024/03/03 19:23:38;;;;;;;27.80;18.20;;;;;;;13.43;60.49;98169.34;232085;201;153269;-59
2024/03/03 19:28:41;;;;;;;27.50;19.10;;;;;;;13.38;60.75;98171.43;232124;197;138356;-58
2024/03/03 19:33:44;;;;;;;29.50;19.20;;;;;;;13.30;60.99;98168.03;231895;202;138577;-58
2024/03/03 19:38:47;;;;;;;32.00;19.00;;;;;;;13.23;61.25;98167.52;232026;197;153828;-56
2024/03/03 19:43:51;;;;;;;29.00;19.10;;;;;;;13.19;61.42;98168.10;232096;198;138235;-58
2024/03/03 19:48:54;;;;;;;29.00;18.70;;;;;;;13.14;61.73;98164.89;232102;198;139151;-59
2024/03/03 19:53:57;;;;;;;52.40;37.40;;;;;;;13.19;62.14;98166.43;231966;201;154874;-60
2024/03/03 19:59:01;;;;;;;313.80;202.60;;;;;;;13.34;63.15;98166.52;231981;199;138466;-60
2024/03/03 20:04:05;;;;;;;58.60;33.70;;;;;;;13.69;61.16;98163.70;232097;198;138354;-59
2024/03/03 20:09:10;;;;;;;28.70;19.70;;;;;;;13.53;60.30;98162.59;231939;198;153990;-62
2024/03/03 20:14:13;;;;;;;34.00;20.50;;;;;;;13.36;60.40;98160.92;232105;202;138444;-58
2024/03/03 20:19:17;;;;;;;33.20;19.90;;;;;;;13.19;60.75;98165.91;232214;202;138722;-59
2024/03/03 20:24:20;;;;;;;28.60;20.30;;;;;;;13.03;61.04;98168.68;232356;202;153276;-58
2024/03/03 20:29:24;;;;;;;30.50;19.90;;;;;;;12.93;61.41;98167.95;232003;202;138518;-57
2024/03/03 20:34:27;;;;;;;113.30;81.60;;;;;;;12.86;61.93;98163.27;232057;198;138198;-57
2024/03/03 20:39:34;;;;;;;36.30;22.80;;;;;;;12.92;62.11;98167.33;231988;199;153462;-57
2024/03/03 20:44:38;;;;;;;34.00;21.60;;;;;;;12.81;61.78;98166.64;232019;198;142108;-57
2024/03/03 20:49:41;;;;;;;33.60;22.30;;;;;;;12.70;61.97;98174.56;232001;198;138908;-53
2024/03/03 20:54:45;;;;;;;30.30;20.60;;;;;;;12.61;62.15;98165.72;231951;202;155393;-58
2024/03/03 20:59:48;;;;;;;32.70;21.70;;;;;;;12.51;62.45;98168.45;232011;205;140732;-57
2024/03/03 21:04:52;;;;;;;31.70;20.80;;;;;;;12.43;62.74;98164.68;232169;198;138206;-55
2024/03/03 21:09:57;;;;;;;35.90;20.40;;;;;;;12.37;62.93;98159.91;232097;205;153219;-56
2024/03/03 21:15:01;;;;;;;33.00;20.80;;;;;;;12.32;63.29;98164.79;232066;202;138512;-53
2024/03/03 21:20:05;;;;;;;32.70;22.20;;;;;;;12.30;63.26;98164.60;232147;197;137698;-58
2024/03/03 21:25:09;;;;;;;31.30;21.80;;;;;;;12.29;63.25;98162.69;232113;198;153098;-56
2024/03/03 21:30:12;;;;;;;32.80;22.10;;;;;;;12.22;63.36;98165.41;231999;205;137536;-57
2024/03/03 21:35:17;;;;;;;33.60;22.50;;;;;;;12.16;63.65;98169.25;232201;202;139062;-56
2024/03/03 21:40:21;;;;;;;36.00;21.60;;;;;;;12.11;63.68;98171.88;232106;197;154147;-56
2024/03/03 21:45:24;;;;;;;32.70;22.10;;;;;;;12.08;63.78;98164.06;232128;197;138993;-56
2024/03/03 21:50:27;;;;;;;32.80;22.40;;;;;;;12.05;63.81;98163.25;232090;198;138475;-57
2024/03/03 21:55:30;;;;;;;36.80;22.80;;;;;;;12.04;63.95;98167.43;231788;198;152979;-57
2024/03/03 22:00:35;;;;;;;30.90;22.20;;;;;;;12.01;64.04;98170.91;232034;205;138459;-56
2024/03/03 22:05:39;;;;;;;34.80;22.10;;;;;;;11.98;64.29;98169.36;231786;202;137519;-56
2024/03/03 22:10:42;;;;;;;35.40;21.70;;;;;;;11.99;64.44;98168.52;231804;205;153095;-57
2024/03/03 22:15:46;;;;;;;38.30;21.90;;;;;;;12.00;64.62;98169.67;231998;205;139010;-57
2024/03/03 22:20:49;;;;;;;29.70;20.70;;;;;;;12.02;64.80;98174.86;231938;198;138877;-56
2024/03/03 22:25:52;;;;;;;30.50;21.10;;;;;;;12.00;64.80;98173.77;231807;205;153876;-57
2024/03/03 22:30:56;;;;;;;36.10;21.90;;;;;;;11.95;64.88;98175.27;231886;198;138284;-57
2024/03/03 22:35:59;;;;;;;30.00;20.60;;;;;;;11.89;64.96;98170.79;231902;198;138789;-54
2024/03/03 22:41:03;;;;;;;35.60;22.50;;;;;;;11.81;65.12;98175.45;231732;199;153267;-57
2024/03/03 22:46:07;;;;;;;30.70;21.30;;;;;;;11.74;65.32;98170.73;231956;198;155069;-56
2024/03/03 22:51:11;;;;;;;32.20;22.40;;;;;;;11.68;65.52;98168.38;232020;198;138091;-57
2024/03/03 22:56:14;;;;;;;33.90;23.00;;;;;;;11.61;65.67;98166.44;232036;198;157060;-57
2024/03/03 23:01:18;;;;;;;33.60;22.80;;;;;;;11.55;65.75;98164.81;231778;202;138508;-58
2024/03/03 23:06:21;;;;;;;34.30;23.30;;;;;;;11.49;66.03;98162.23;231719;205;138595;-57
2024/03/03 23:11:25;;;;;;;33.60;22.30;;;;;;;11.45;65.98;98160.85;231876;198;153962;-58
2024/03/03 23:16:28;;;;;;;36.80;23.40;;;;;;;11.38;66.31;98161.49;231795;199;139291;-58